sensor_id;sensor_type;location;lat;lon;timestamp;P1;durP1;ratioP1;P2;durP2;ratioP2
76837;SDS011;65797;47.352;8.164;2023-11-21T00:00:49;4.40;;;0.93;;
76837;SDS011;65797;47.352;8.164;2023-11-21T00:03:14;6.83;;;1.20;;
76837;SDS011;65797;47.352;8.164;2023-11-21T00:05:40;3.80;;;1.00;;
76837;SDS011;65797;47.352;8.164;2023-11-21T00:08:07;2.93;;;1.23;;
76837;SDS011;65797;47.352;8.164;2023-11-21T00:10:33;4.10;;;1.00;;
76837;SDS011;65797;47.352;8.164;2023-11-21T00:13:00;2.43;;;1.00;;
76837;SDS011;65797;47.352;8.164;2023-11-21T00:15:27;2.73;;;1.40;;
76837;SDS011;65797;47.352;8.164;2023-11-21T00:17:52;6.47;;;1.03;;
76837;SDS011;65797;47.352;8.164;2023-11-21T00:20:18;2.83;;;1.20;;
76837;SDS011;65797;47.352;8.164;2023-11-21T00:22:44;4.90;;;1.33;;
76837;SDS011;65797;47.352;8.164;2023-11-21T00:25:09;4.73;;;1.10;;
76837;SDS011;65797;47.352;8.164;2023-11-21T00:27:36;3.40;;;1.13;;
76837;SDS011;65797;47.352;8.164;2023-11-21T00:30:02;3.87;;;1.00;;
76837;SDS011;65797;47.352;8.164;2023-11-21T00:32:30;4.27;;;1.10;;
76837;SDS011;65797;47.352;8.164;2023-11-21T00:34:55;2.73;;;1.00;;
76837;SDS011;65797;47.352;8.164;2023-11-21T00:37:21;4.07;;;1.10;;
76837;SDS011;65797;47.352;8.164;2023-11-21T00:39:47;4.20;;;1.27;;
76837;SDS011;65797;47.352;8.164;2023-11-21T00:42:12;3.90;;;0.90;;
76837;SDS011;65797;47.352;8.164;2023-11-21T00:44:38;5.60;;;1.00;;
76837;SDS011;65797;47.352;8.164;2023-11-21T00:47:04;3.77;;;0.90;;
76837;SDS011;65797;47.352;8.164;2023-11-21T00:49:30;9.43;;;1.50;;
76837;SDS011;65797;47.352;8.164;2023-11-21T00:51:56;3.77;;;0.73;;
76837;SDS011;65797;47.352;8.164;2023-11-21T00:54:23;2.20;;;1.00;;
76837;SDS011;65797;47.352;8.164;2023-11-21T00:56:48;3.93;;;1.10;;
76837;SDS011;65797;47.352;8.164;2023-11-21T00:59:14;8.60;;;1.70;;
76837;SDS011;65797;47.352;8.164;2023-11-21T01:01:40;2.83;;;1.13;;
76837;SDS011;65797;47.352;8.164;2023-11-21T01:04:06;5.80;;;1.03;;
76837;SDS011;65797;47.352;8.164;2023-11-21T01:06:34;4.77;;;0.90;;
76837;SDS011;65797;47.352;8.164;2023-11-21T01:09:00;2.87;;;1.00;;
76837;SDS011;65797;47.352;8.164;2023-11-21T01:11:26;1.20;;;0.77;;
76837;SDS011;65797;47.352;8.164;2023-11-21T01:13:51;4.97;;;1.43;;
76837;SDS011;65797;47.352;8.164;2023-11-21T01:16:18;3.10;;;0.90;;
76837;SDS011;65797;47.352;8.164;2023-11-21T01:18:44;5.10;;;1.27;;
76837;SDS011;65797;47.352;8.164;2023-11-21T01:21:09;7.20;;;1.20;;
76837;SDS011;65797;47.352;8.164;2023-11-21T01:23:35;6.33;;;1.00;;
76837;SDS011;65797;47.352;8.164;2023-11-21T01:26:01;1.93;;;1.33;;
76837;SDS011;65797;47.352;8.164;2023-11-21T01:28:27;3.07;;;1.03;;
76837;SDS011;65797;47.352;8.164;2023-11-21T01:30:53;8.03;;;1.10;;
76837;SDS011;65797;47.352;8.164;2023-11-21T01:33:21;4.47;;;0.93;;
76837;SDS011;65797;47.352;8.164;2023-11-21T01:35:50;2.10;;;1.00;;
76837;SDS011;65797;47.352;8.164;2023-11-21T01:38:18;2.33;;;0.70;;
76837;SDS011;65797;47.352;8.164;2023-11-21T01:40:43;6.37;;;0.90;;
76837;SDS011;65797;47.352;8.164;2023-11-21T01:43:09;6.10;;;1.20;;
76837;SDS011;65797;47.352;8.164;2023-11-21T01:45:35;2.23;;;0.90;;
76837;SDS011;65797;47.352;8.164;2023-11-21T01:48:01;2.77;;;0.93;;
76837;SDS011;65797;47.352;8.164;2023-11-21T01:50:29;2.27;;;0.80;;
76837;SDS011;65797;47.352;8.164;2023-11-21T01:52:54;4.00;;;1.00;;
76837;SDS011;65797;47.352;8.164;2023-11-21T01:55:21;3.70;;;1.40;;
76837;SDS011;65797;47.352;8.164;2023-11-21T01:57:47;4.17;;;0.97;;
76837;SDS011;65797;47.352;8.164;2023-11-21T02:00:13;4.57;;;1.03;;
76837;SDS011;65797;47.352;8.164;2023-11-21T02:02:45;2.60;;;1.00;;
76837;SDS011;65797;47.352;8.164;2023-11-21T02:05:12;2.20;;;0.90;;
76837;SDS011;65797;47.352;8.164;2023-11-21T02:07:40;2.93;;;0.90;;
76837;SDS011;65797;47.352;8.164;2023-11-21T02:10:09;4.30;;;0.87;;
76837;SDS011;65797;47.352;8.164;2023-11-21T02:12:39;1.20;;;0.90;;
76837;SDS011;65797;47.352;8.164;2023-11-21T02:15:12;5.97;;;0.90;;
76837;SDS011;65797;47.352;8.164;2023-11-21T02:17:51;4.17;;;1.10;;
76837;SDS011;65797;47.352;8.164;2023-11-21T02:20:19;5.47;;;1.30;;
76837;SDS011;65797;47.352;8.164;2023-11-21T02:22:48;4.10;;;1.20;;
76837;SDS011;65797;47.352;8.164;2023-11-21T02:25:18;2.07;;;1.10;;
76837;SDS011;65797;47.352;8.164;2023-11-21T02:27:43;7.97;;;1.30;;
76837;SDS011;65797;47.352;8.164;2023-11-21T02:30:13;2.80;;;0.70;;
76837;SDS011;65797;47.352;8.164;2023-11-21T02:32:39;4.30;;;1.10;;
76837;SDS011;65797;47.352;8.164;2023-11-21T02:35:07;1.33;;;1.00;;
76837;SDS011;65797;47.352;8.164;2023-11-21T02:37:34;1.43;;;0.90;;
76837;SDS011;65797;47.352;8.164;2023-11-21T02:40:00;5.07;;;1.03;;
76837;SDS011;65797;47.352;8.164;2023-11-21T02:42:29;2.73;;;0.90;;
76837;SDS011;65797;47.352;8.164;2023-11-21T02:44:55;5.13;;;1.20;;
76837;SDS011;65797;47.352;8.164;2023-11-21T02:47:22;3.53;;;1.10;;
76837;SDS011;65797;47.352;8.164;2023-11-21T02:49:48;3.30;;;0.80;;
76837;SDS011;65797;47.352;8.164;2023-11-21T02:52:14;4.30;;;1.17;;
76837;SDS011;65797;47.352;8.164;2023-11-21T02:54:40;1.03;;;1.03;;
76837;SDS011;65797;47.352;8.164;2023-11-21T02:57:06;3.73;;;0.87;;
76837;SDS011;65797;47.352;8.164;2023-11-21T02:59:32;5.70;;;1.07;;
76837;SDS011;65797;47.352;8.164;2023-11-21T03:01:58;2.47;;;1.10;;
76837;SDS011;65797;47.352;8.164;2023-11-21T03:04:23;1.70;;;1.07;;
76837;SDS011;65797;47.352;8.164;2023-11-21T03:06:49;5.70;;;1.27;;
76837;SDS011;65797;47.352;8.164;2023-11-21T03:09:15;2.60;;;1.00;;
76837;SDS011;65797;47.352;8.164;2023-11-21T03:11:41;4.50;;;1.10;;
76837;SDS011;65797;47.352;8.164;2023-11-21T03:14:07;0.87;;;0.77;;
76837;SDS011;65797;47.352;8.164;2023-11-21T03:16:33;7.90;;;1.10;;
76837;SDS011;65797;47.352;8.164;2023-11-21T03:18:58;5.03;;;0.97;;
76837;SDS011;65797;47.352;8.164;2023-11-21T03:21:24;2.83;;;0.90;;
76837;SDS011;65797;47.352;8.164;2023-11-21T03:23:51;2.40;;;0.80;;
76837;SDS011;65797;47.352;8.164;2023-11-21T03:26:17;5.90;;;1.43;;
76837;SDS011;65797;47.352;8.164;2023-11-21T03:28:44;1.90;;;1.13;;
76837;SDS011;65797;47.352;8.164;2023-11-21T03:31:11;6.47;;;1.20;;
76837;SDS011;65797;47.352;8.164;2023-11-21T03:33:37;3.53;;;0.90;;
76837;SDS011;65797;47.352;8.164;2023-11-21T03:36:03;2.27;;;1.00;;
76837;SDS011;65797;47.352;8.164;2023-11-21T03:38:30;1.43;;;1.20;;
76837;SDS011;65797;47.352;8.164;2023-11-21T03:40:57;6.17;;;1.40;;
76837;SDS011;65797;47.352;8.164;2023-11-21T03:43:23;8.40;;;1.33;;
76837;SDS011;65797;47.352;8.164;2023-11-21T03:45:49;0.90;;;0.90;;
76837;SDS011;65797;47.352;8.164;2023-11-21T03:48:15;2.90;;;0.90;;
76837;SDS011;65797;47.352;8.164;2023-11-21T03:50:41;2.20;;;0.80;;
76837;SDS011;65797;47.352;8.164;2023-11-21T03:53:07;1.37;;;1.10;;
76837;SDS011;65797;47.352;8.164;2023-11-21T03:55:51;2.50;;;0.90;;
76837;SDS011;65797;47.352;8.164;2023-11-21T03:58:31;1.47;;;0.83;;
76837;SDS011;65797;47.352;8.164;2023-11-21T04:00:58;3.23;;;0.83;;
76837;SDS011;65797;47.352;8.164;2023-11-21T04:03:30;1.47;;;1.00;;
76837;SDS011;65797;47.352;8.164;2023-11-21T04:05:56;2.80;;;0.80;;
76837;SDS011;65797;47.352;8.164;2023-11-21T04:08:22;3.20;;;0.87;;
76837;SDS011;65797;47.352;8.164;2023-11-21T04:10:47;3.87;;;1.20;;
76837;SDS011;65797;47.352;8.164;2023-11-21T04:13:13;3.13;;;1.40;;
76837;SDS011;65797;47.352;8.164;2023-11-21T04:15:39;1.13;;;0.90;;
76837;SDS011;65797;47.352;8.164;2023-11-21T04:18:05;0.90;;;0.60;;
76837;SDS011;65797;47.352;8.164;2023-11-21T04:20:31;2.67;;;0.80;;
76837;SDS011;65797;47.352;8.164;2023-11-21T04:22:57;3.30;;;0.80;;
76837;SDS011;65797;47.352;8.164;2023-11-21T04:25:23;2.50;;;0.87;;
76837;SDS011;65797;47.352;8.164;2023-11-21T04:27:48;4.63;;;0.80;;
76837;SDS011;65797;47.352;8.164;2023-11-21T04:30:15;2.90;;;0.90;;
76837;SDS011;65797;47.352;8.164;2023-11-21T04:32:41;6.10;;;0.80;;
76837;SDS011;65797;47.352;8.164;2023-11-21T04:35:07;1.80;;;0.70;;
76837;SDS011;65797;47.352;8.164;2023-11-21T04:37:36;2.77;;;0.70;;
76837;SDS011;65797;47.352;8.164;2023-11-21T04:40:02;2.17;;;0.90;;
76837;SDS011;65797;47.352;8.164;2023-11-21T04:42:32;5.50;;;0.80;;
76837;SDS011;65797;47.352;8.164;2023-11-21T04:44:59;1.50;;;0.63;;
76837;SDS011;65797;47.352;8.164;2023-11-21T04:47:26;1.83;;;0.70;;
76837;SDS011;65797;47.352;8.164;2023-11-21T04:49:52;2.87;;;0.70;;
76837;SDS011;65797;47.352;8.164;2023-11-21T04:52:17;3.03;;;0.80;;
76837;SDS011;65797;47.352;8.164;2023-11-21T04:54:45;1.30;;;0.80;;
76837;SDS011;65797;47.352;8.164;2023-11-21T04:57:10;6.60;;;1.07;;
76837;SDS011;65797;47.352;8.164;2023-11-21T04:59:37;2.40;;;0.90;;
76837;SDS011;65797;47.352;8.164;2023-11-21T05:02:02;5.37;;;1.07;;
76837;SDS011;65797;47.352;8.164;2023-11-21T05:04:30;2.63;;;1.00;;
76837;SDS011;65797;47.352;8.164;2023-11-21T05:06:55;1.60;;;0.77;;
76837;SDS011;65797;47.352;8.164;2023-11-21T05:09:21;6.70;;;1.30;;
76837;SDS011;65797;47.352;8.164;2023-11-21T05:11:47;2.50;;;0.77;;
76837;SDS011;65797;47.352;8.164;2023-11-21T05:14:13;9.90;;;0.90;;
76837;SDS011;65797;47.352;8.164;2023-11-21T05:16:39;1.57;;;0.70;;
76837;SDS011;65797;47.352;8.164;2023-11-21T05:19:05;2.73;;;0.80;;
76837;SDS011;65797;47.352;8.164;2023-11-21T05:21:31;2.63;;;0.60;;
76837;SDS011;65797;47.352;8.164;2023-11-21T05:23:57;1.13;;;0.87;;
76837;SDS011;65797;47.352;8.164;2023-11-21T05:26:23;1.13;;;0.60;;
76837;SDS011;65797;47.352;8.164;2023-11-21T05:28:49;2.87;;;0.90;;
76837;SDS011;65797;47.352;8.164;2023-11-21T05:31:15;0.70;;;0.70;;
76837;SDS011;65797;47.352;8.164;2023-11-21T05:33:41;3.07;;;0.73;;
76837;SDS011;65797;47.352;8.164;2023-11-21T05:36:07;2.30;;;0.97;;
76837;SDS011;65797;47.352;8.164;2023-11-21T05:38:33;2.80;;;0.80;;
76837;SDS011;65797;47.352;8.164;2023-11-21T05:41:02;3.87;;;0.77;;
76837;SDS011;65797;47.352;8.164;2023-11-21T05:43:29;1.67;;;0.83;;
76837;SDS011;65797;47.352;8.164;2023-11-21T05:45:57;4.77;;;1.10;;
76837;SDS011;65797;47.352;8.164;2023-11-21T05:48:23;1.43;;;0.63;;
76837;SDS011;65797;47.352;8.164;2023-11-21T05:50:49;2.03;;;1.00;;
76837;SDS011;65797;47.352;8.164;2023-11-21T05:53:15;3.00;;;0.90;;
76837;SDS011;65797;47.352;8.164;2023-11-21T05:55:41;1.53;;;0.80;;
76837;SDS011;65797;47.352;8.164;2023-11-21T05:58:07;6.70;;;0.80;;
76837;SDS011;65797;47.352;8.164;2023-11-21T06:00:33;1.37;;;0.83;;
76837;SDS011;65797;47.352;8.164;2023-11-21T06:02:59;3.70;;;0.90;;
76837;SDS011;65797;47.352;8.164;2023-11-21T06:05:26;2.70;;;0.80;;
76837;SDS011;65797;47.352;8.164;2023-11-21T06:07:52;3.97;;;0.83;;
76837;SDS011;65797;47.352;8.164;2023-11-21T06:10:22;3.70;;;0.90;;
76837;SDS011;65797;47.352;8.164;2023-11-21T06:12:48;0.83;;;0.83;;
76837;SDS011;65797;47.352;8.164;2023-11-21T06:15:14;2.37;;;0.70;;
76837;SDS011;65797;47.352;8.164;2023-11-21T06:17:41;1.77;;;1.10;;
76837;SDS011;65797;47.352;8.164;2023-11-21T06:20:08;2.70;;;0.83;;
76837;SDS011;65797;47.352;8.164;2023-11-21T06:22:36;6.43;;;1.33;;
76837;SDS011;65797;47.352;8.164;2023-11-21T06:25:03;5.43;;;2.10;;
76837;SDS011;65797;47.352;8.164;2023-11-21T06:27:33;1.17;;;0.70;;
76837;SDS011;65797;47.352;8.164;2023-11-21T06:30:01;2.30;;;1.10;;
76837;SDS011;65797;47.352;8.164;2023-11-21T06:32:27;3.50;;;1.10;;
76837;SDS011;65797;47.352;8.164;2023-11-21T06:34:55;2.93;;;1.00;;
76837;SDS011;65797;47.352;8.164;2023-11-21T06:37:21;4.03;;;1.00;;
76837;SDS011;65797;47.352;8.164;2023-11-21T06:39:48;2.17;;;1.10;;
76837;SDS011;65797;47.352;8.164;2023-11-21T06:42:17;1.50;;;1.07;;
76837;SDS011;65797;47.352;8.164;2023-11-21T06:44:50;1.60;;;1.00;;
76837;SDS011;65797;47.352;8.164;2023-11-21T06:47:17;1.33;;;1.00;;
76837;SDS011;65797;47.352;8.164;2023-11-21T06:49:45;5.87;;;1.20;;
76837;SDS011;65797;47.352;8.164;2023-11-21T06:52:12;2.23;;;1.30;;
76837;SDS011;65797;47.352;8.164;2023-11-21T06:57:14;1.00;;;0.97;;
76837;SDS011;65797;47.352;8.164;2023-11-21T06:59:39;3.37;;;1.20;;
76837;SDS011;65797;47.352;8.164;2023-11-21T07:02:05;5.07;;;1.23;;
76837;SDS011;65797;47.352;8.164;2023-11-21T07:04:32;6.00;;;1.50;;
76837;SDS011;65797;47.352;8.164;2023-11-21T07:14:44;4.00;;;1.50;;
76837;SDS011;65797;47.352;8.164;2023-11-21T08:27:18;1.80;;;0.90;;
76837;SDS011;65797;47.352;8.164;2023-11-21T08:29:44;1.43;;;0.73;;
76837;SDS011;65797;47.352;8.164;2023-11-21T11:06:28;5.63;;;1.07;;
76837;SDS011;65797;47.352;8.164;2023-11-21T11:11:30;0.90;;;0.90;;
76837;SDS011;65797;47.352;8.164;2023-11-21T11:13:55;1.80;;;1.17;;
76837;SDS011;65797;47.352;8.164;2023-11-21T11:16:25;2.80;;;1.90;;
76837;SDS011;65797;47.352;8.164;2023-11-21T11:18:53;3.37;;;1.03;;
76837;SDS011;65797;47.352;8.164;2023-11-21T11:21:24;4.50;;;1.20;;
76837;SDS011;65797;47.352;8.164;2023-11-21T11:26:50;1.90;;;1.30;;
76837;SDS011;65797;47.352;8.164;2023-11-21T11:29:33;1.00;;;1.00;;
76837;SDS011;65797;47.352;8.164;2023-11-21T11:32:10;2.60;;;1.30;;
76837;SDS011;65797;47.352;8.164;2023-11-21T11:34:52;1.23;;;1.13;;
76837;SDS011;65797;47.352;8.164;2023-11-21T11:37:26;3.50;;;0.83;;
76837;SDS011;65797;47.352;8.164;2023-11-21T11:39:52;5.27;;;1.43;;
76837;SDS011;65797;47.352;8.164;2023-11-21T11:42:19;4.03;;;1.20;;
76837;SDS011;65797;47.352;8.164;2023-11-21T11:44:48;0.90;;;0.90;;
76837;SDS011;65797;47.352;8.164;2023-11-21T11:49:59;1.27;;;1.17;;
76837;SDS011;65797;47.352;8.164;2023-11-21T11:52:34;1.30;;;1.20;;
76837;SDS011;65797;47.352;8.164;2023-11-21T11:55:05;1.27;;;1.17;;
76837;SDS011;65797;47.352;8.164;2023-11-21T12:00:11;2.60;;;1.10;;
76837;SDS011;65797;47.352;8.164;2023-11-21T12:02:43;1.83;;;1.00;;
76837;SDS011;65797;47.352;8.164;2023-11-21T12:05:11;2.07;;;1.17;;
76837;SDS011;65797;47.352;8.164;2023-11-21T12:10:16;0.90;;;0.90;;
76837;SDS011;65797;47.352;8.164;2023-11-21T12:12:47;2.20;;;1.03;;
76837;SDS011;65797;47.352;8.164;2023-11-21T12:15:14;1.33;;;0.90;;
76837;SDS011;65797;47.352;8.164;2023-11-21T12:17:41;1.17;;;1.00;;
76837;SDS011;65797;47.352;8.164;2023-11-21T12:20:09;1.83;;;1.30;;
76837;SDS011;65797;47.352;8.164;2023-11-21T12:22:44;1.43;;;1.13;;
76837;SDS011;65797;47.352;8.164;2023-11-21T12:25:16;5.17;;;1.60;;
76837;SDS011;65797;47.352;8.164;2023-11-21T12:27:47;3.03;;;1.53;;
76837;SDS011;65797;47.352;8.164;2023-11-21T12:30:14;0.97;;;0.97;;
76837;SDS011;65797;47.352;8.164;2023-11-21T12:32:42;2.37;;;1.20;;
76837;SDS011;65797;47.352;8.164;2023-11-21T12:35:10;1.63;;;1.10;;
76837;SDS011;65797;47.352;8.164;2023-11-21T12:37:37;1.43;;;1.17;;
76837;SDS011;65797;47.352;8.164;2023-11-21T12:40:07;1.57;;;1.43;;
76837;SDS011;65797;47.352;8.164;2023-11-21T12:42:36;1.53;;;1.13;;
76837;SDS011;65797;47.352;8.164;2023-11-21T12:45:07;1.53;;;1.30;;
76837;SDS011;65797;47.352;8.164;2023-11-21T12:47:43;1.63;;;1.53;;
76837;SDS011;65797;47.352;8.164;2023-11-21T12:50:12;3.00;;;2.60;;
76837;SDS011;65797;47.352;8.164;2023-11-21T12:52:44;2.00;;;1.53;;
76837;SDS011;65797;47.352;8.164;2023-11-21T12:55:17;1.30;;;1.30;;
76837;SDS011;65797;47.352;8.164;2023-11-21T12:57:47;1.50;;;1.30;;
76837;SDS011;65797;47.352;8.164;2023-11-21T13:00:16;2.67;;;1.27;;
76837;SDS011;65797;47.352;8.164;2023-11-21T13:02:54;1.20;;;1.20;;
76837;SDS011;65797;47.352;8.164;2023-11-21T13:05:33;1.07;;;1.07;;
76837;SDS011;65797;47.352;8.164;2023-11-21T13:08:03;1.27;;;1.17;;
76837;SDS011;65797;47.352;8.164;2023-11-21T13:10:33;4.43;;;1.33;;
76837;SDS011;65797;47.352;8.164;2023-11-21T13:13:01;1.20;;;1.20;;
76837;SDS011;65797;47.352;8.164;2023-11-21T13:15:30;0.90;;;0.90;;
76837;SDS011;65797;47.352;8.164;2023-11-21T13:17:58;5.90;;;1.67;;
76837;SDS011;65797;47.352;8.164;2023-11-21T13:20:27;3.33;;;1.40;;
76837;SDS011;65797;47.352;8.164;2023-11-21T13:22:55;1.30;;;1.30;;
76837;SDS011;65797;47.352;8.164;2023-11-21T13:25:24;1.83;;;1.20;;
76837;SDS011;65797;47.352;8.164;2023-11-21T13:27:55;1.73;;;1.20;;
76837;SDS011;65797;47.352;8.164;2023-11-21T13:30:22;6.03;;;0.90;;
76837;SDS011;65797;47.352;8.164;2023-11-21T13:32:55;1.30;;;1.20;;
76837;SDS011;65797;47.352;8.164;2023-11-21T13:35:26;2.07;;;1.30;;
76837;SDS011;65797;47.352;8.164;2023-11-21T13:38:02;1.10;;;1.00;;
76837;SDS011;65797;47.352;8.164;2023-11-21T13:40:32;1.07;;;0.90;;
76837;SDS011;65797;47.352;8.164;2023-11-21T13:43:04;1.30;;;1.20;;
76837;SDS011;65797;47.352;8.164;2023-11-21T13:45:35;1.93;;;1.47;;
76837;SDS011;65797;47.352;8.164;2023-11-21T13:48:07;2.07;;;1.17;;
76837;SDS011;65797;47.352;8.164;2023-11-21T13:50:45;2.30;;;1.27;;
76837;SDS011;65797;47.352;8.164;2023-11-21T13:53:24;1.47;;;1.37;;
76837;SDS011;65797;47.352;8.164;2023-11-21T13:55:51;1.43;;;1.20;;
76837;SDS011;65797;47.352;8.164;2023-11-21T13:58:22;1.93;;;1.30;;
76837;SDS011;65797;47.352;8.164;2023-11-21T14:01:00;1.57;;;1.23;;
76837;SDS011;65797;47.352;8.164;2023-11-21T14:03:26;1.30;;;1.20;;
76837;SDS011;65797;47.352;8.164;2023-11-21T14:06:05;1.03;;;1.03;;
76837;SDS011;65797;47.352;8.164;2023-11-21T14:08:39;1.30;;;1.20;;
76837;SDS011;65797;47.352;8.164;2023-11-21T14:11:06;1.83;;;1.40;;
76837;SDS011;65797;47.352;8.164;2023-11-21T14:13:32;1.47;;;0.90;;
76837;SDS011;65797;47.352;8.164;2023-11-21T14:15:58;2.10;;;0.90;;
76837;SDS011;65797;47.352;8.164;2023-11-21T14:18:27;1.07;;;1.07;;
76837;SDS011;65797;47.352;8.164;2023-11-21T14:21:03;2.20;;;0.80;;
76837;SDS011;65797;47.352;8.164;2023-11-21T14:23:30;1.40;;;1.07;;
76837;SDS011;65797;47.352;8.164;2023-11-21T14:25:58;1.10;;;1.00;;
76837;SDS011;65797;47.352;8.164;2023-11-21T14:28:26;1.20;;;1.10;;
76837;SDS011;65797;47.352;8.164;2023-11-21T14:30:52;3.50;;;0.90;;
76837;SDS011;65797;47.352;8.164;2023-11-21T14:33:18;1.20;;;0.90;;
76837;SDS011;65797;47.352;8.164;2023-11-21T14:35:47;0.70;;;0.70;;
76837;SDS011;65797;47.352;8.164;2023-11-21T14:38:13;0.80;;;0.80;;
76837;SDS011;65797;47.352;8.164;2023-11-21T14:40:40;1.70;;;0.90;;
76837;SDS011;65797;47.352;8.164;2023-11-21T14:43:06;2.87;;;0.93;;
76837;SDS011;65797;47.352;8.164;2023-11-21T14:45:32;0.87;;;0.70;;
76837;SDS011;65797;47.352;8.164;2023-11-21T14:47:59;4.43;;;1.13;;
76837;SDS011;65797;47.352;8.164;2023-11-21T14:50:31;0.90;;;0.90;;
76837;SDS011;65797;47.352;8.164;2023-11-21T14:53:04;1.00;;;0.90;;
76837;SDS011;65797;47.352;8.164;2023-11-21T14:55:34;1.23;;;0.90;;
76837;SDS011;65797;47.352;8.164;2023-11-21T14:58:06;0.90;;;0.80;;
76837;SDS011;65797;47.352;8.164;2023-11-21T15:00:37;1.30;;;1.10;;
76837;SDS011;65797;47.352;8.164;2023-11-21T15:03:09;4.20;;;3.00;;
76837;SDS011;65797;47.352;8.164;2023-11-21T15:05:46;6.40;;;3.30;;
76837;SDS011;65797;47.352;8.164;2023-11-21T15:08:14;2.60;;;2.37;;
76837;SDS011;65797;47.352;8.164;2023-11-21T15:10:49;2.80;;;2.03;;
76837;SDS011;65797;47.352;8.164;2023-11-21T15:13:18;6.40;;;1.53;;
76837;SDS011;65797;47.352;8.164;2023-11-21T15:15:45;1.27;;;1.17;;
76837;SDS011;65797;47.352;8.164;2023-11-21T15:18:11;1.33;;;0.93;;
76837;SDS011;65797;47.352;8.164;2023-11-21T15:20:41;0.77;;;0.77;;
76837;SDS011;65797;47.352;8.164;2023-11-21T15:23:08;1.00;;;1.00;;
76837;SDS011;65797;47.352;8.164;2023-11-21T15:25:34;2.30;;;1.63;;
76837;SDS011;65797;47.352;8.164;2023-11-21T15:28:01;1.70;;;0.93;;
76837;SDS011;65797;47.352;8.164;2023-11-21T15:30:30;1.90;;;1.10;;
76837;SDS011;65797;47.352;8.164;2023-11-21T15:32:59;1.47;;;1.33;;
76837;SDS011;65797;47.352;8.164;2023-11-21T15:35:26;1.50;;;1.40;;
76837;SDS011;65797;47.352;8.164;2023-11-21T15:37:54;1.13;;;1.07;;
76837;SDS011;65797;47.352;8.164;2023-11-21T15:40:24;2.30;;;1.10;;
76837;SDS011;65797;47.352;8.164;2023-11-21T15:42:50;2.00;;;1.13;;
76837;SDS011;65797;47.352;8.164;2023-11-21T15:45:16;2.90;;;1.30;;
76837;SDS011;65797;47.352;8.164;2023-11-21T15:47:46;3.40;;;1.57;;
76837;SDS011;65797;47.352;8.164;2023-11-21T15:50:12;7.57;;;1.67;;
76837;SDS011;65797;47.352;8.164;2023-11-21T15:52:38;4.30;;;1.40;;
76837;SDS011;65797;47.352;8.164;2023-11-21T15:55:04;3.97;;;1.63;;
76837;SDS011;65797;47.352;8.164;2023-11-21T15:57:31;3.40;;;1.30;;
76837;SDS011;65797;47.352;8.164;2023-11-21T15:59:57;5.23;;;1.23;;
76837;SDS011;65797;47.352;8.164;2023-11-21T16:02:23;1.30;;;1.10;;
76837;SDS011;65797;47.352;8.164;2023-11-21T16:04:48;1.67;;;1.57;;
76837;SDS011;65797;47.352;8.164;2023-11-21T16:07:14;1.17;;;1.03;;
76837;SDS011;65797;47.352;8.164;2023-11-21T16:09:43;1.33;;;1.17;;
76837;SDS011;65797;47.352;8.164;2023-11-21T16:12:08;1.47;;;1.30;;
76837;SDS011;65797;47.352;8.164;2023-11-21T16:14:37;1.00;;;1.00;;
76837;SDS011;65797;47.352;8.164;2023-11-21T16:17:11;1.87;;;1.37;;
76837;SDS011;65797;47.352;8.164;2023-11-21T16:19:38;1.10;;;1.10;;
76837;SDS011;65797;47.352;8.164;2023-11-21T16:22:06;1.33;;;1.23;;
76837;SDS011;65797;47.352;8.164;2023-11-21T16:24:31;2.67;;;1.07;;
76837;SDS011;65797;47.352;8.164;2023-11-21T16:26:58;1.70;;;1.43;;
76837;SDS011;65797;47.352;8.164;2023-11-21T16:29:24;1.80;;;1.40;;
76837;SDS011;65797;47.352;8.164;2023-11-21T16:31:51;1.50;;;1.40;;
76837;SDS011;65797;47.352;8.164;2023-11-21T16:34:21;2.03;;;1.77;;
76837;SDS011;65797;47.352;8.164;2023-11-21T16:36:48;2.70;;;1.50;;
76837;SDS011;65797;47.352;8.164;2023-11-21T16:39:14;4.20;;;2.00;;
76837;SDS011;65797;47.352;8.164;2023-11-21T16:41:44;1.33;;;1.23;;
76837;SDS011;65797;47.352;8.164;2023-11-21T16:44:18;4.10;;;1.40;;
76837;SDS011;65797;47.352;8.164;2023-11-21T16:46:45;4.93;;;2.57;;
76837;SDS011;65797;47.352;8.164;2023-11-21T16:49:13;5.07;;;3.50;;
76837;SDS011;65797;47.352;8.164;2023-11-21T16:51:39;2.97;;;2.10;;
76837;SDS011;65797;47.352;8.164;2023-11-21T16:54:05;5.63;;;1.73;;
76837;SDS011;65797;47.352;8.164;2023-11-21T16:56:33;4.00;;;1.30;;
76837;SDS011;65797;47.352;8.164;2023-11-21T16:59:01;4.63;;;1.80;;
76837;SDS011;65797;47.352;8.164;2023-11-21T17:01:27;4.20;;;2.77;;
76837;SDS011;65797;47.352;8.164;2023-11-21T17:03:54;4.30;;;3.43;;
76837;SDS011;65797;47.352;8.164;2023-11-21T17:06:26;3.57;;;3.17;;
76837;SDS011;65797;47.352;8.164;2023-11-21T17:08:52;5.23;;;2.80;;
76837;SDS011;65797;47.352;8.164;2023-11-21T17:11:18;1.60;;;1.50;;
76837;SDS011;65797;47.352;8.164;2023-11-21T17:13:45;3.17;;;1.20;;
76837;SDS011;65797;47.352;8.164;2023-11-21T17:16:11;4.60;;;1.40;;
76837;SDS011;65797;47.352;8.164;2023-11-21T17:18:37;1.20;;;1.10;;
76837;SDS011;65797;47.352;8.164;2023-11-21T17:21:03;3.37;;;1.60;;
76837;SDS011;65797;47.352;8.164;2023-11-21T17:23:30;1.93;;;1.67;;
76837;SDS011;65797;47.352;8.164;2023-11-21T17:25:56;7.80;;;1.30;;
76837;SDS011;65797;47.352;8.164;2023-11-21T17:28:25;2.73;;;1.43;;
76837;SDS011;65797;47.352;8.164;2023-11-21T17:30:50;0.93;;;0.93;;
76837;SDS011;65797;47.352;8.164;2023-11-21T17:33:16;1.00;;;1.00;;
76837;SDS011;65797;47.352;8.164;2023-11-21T17:35:43;1.00;;;1.00;;
76837;SDS011;65797;47.352;8.164;2023-11-21T17:38:09;1.60;;;1.50;;
76837;SDS011;65797;47.352;8.164;2023-11-21T17:40:37;1.40;;;1.30;;
76837;SDS011;65797;47.352;8.164;2023-11-21T17:43:04;4.10;;;1.70;;
76837;SDS011;65797;47.352;8.164;2023-11-21T17:45:30;5.07;;;1.60;;
76837;SDS011;65797;47.352;8.164;2023-11-21T17:47:56;3.23;;;2.00;;
76837;SDS011;65797;47.352;8.164;2023-11-21T17:50:22;1.53;;;1.37;;
76837;SDS011;65797;47.352;8.164;2023-11-21T17:52:48;2.33;;;2.13;;
76837;SDS011;65797;47.352;8.164;2023-11-21T17:55:13;8.83;;;5.10;;
76837;SDS011;65797;47.352;8.164;2023-11-21T17:57:39;4.60;;;4.00;;
76837;SDS011;65797;47.352;8.164;2023-11-21T18:00:06;4.70;;;4.20;;
76837;SDS011;65797;47.352;8.164;2023-11-21T18:02:37;3.80;;;3.50;;
76837;SDS011;65797;47.352;8.164;2023-11-21T18:05:03;6.00;;;3.40;;
76837;SDS011;65797;47.352;8.164;2023-11-21T18:07:36;1.57;;;1.47;;
76837;SDS011;65797;47.352;8.164;2023-11-21T18:10:04;1.57;;;1.47;;
76837;SDS011;65797;47.352;8.164;2023-11-21T18:12:32;2.60;;;1.53;;
76837;SDS011;65797;47.352;8.164;2023-11-21T18:14:58;3.83;;;1.53;;
76837;SDS011;65797;47.352;8.164;2023-11-21T18:17:24;5.43;;;2.03;;
76837;SDS011;65797;47.352;8.164;2023-11-21T18:19:50;5.67;;;2.40;;
76837;SDS011;65797;47.352;8.164;2023-11-21T18:22:20;3.80;;;2.63;;
76837;SDS011;65797;47.352;8.164;2023-11-21T18:24:51;7.23;;;3.00;;
76837;SDS011;65797;47.352;8.164;2023-11-21T18:27:19;4.00;;;2.83;;
76837;SDS011;65797;47.352;8.164;2023-11-21T18:29:52;3.87;;;2.10;;
76837;SDS011;65797;47.352;8.164;2023-11-21T18:32:30;3.50;;;2.40;;
76837;SDS011;65797;47.352;8.164;2023-11-21T18:34:57;4.10;;;1.80;;
76837;SDS011;65797;47.352;8.164;2023-11-21T18:37:23;3.83;;;1.87;;
76837;SDS011;65797;47.352;8.164;2023-11-21T18:39:48;2.00;;;1.60;;
76837;SDS011;65797;47.352;8.164;2023-11-21T18:42:14;2.23;;;2.00;;
76837;SDS011;65797;47.352;8.164;2023-11-21T18:44:43;2.50;;;2.20;;
76837;SDS011;65797;47.352;8.164;2023-11-21T18:47:11;3.40;;;3.07;;
76837;SDS011;65797;47.352;8.164;2023-11-21T18:49:37;5.37;;;4.00;;
76837;SDS011;65797;47.352;8.164;2023-11-21T18:52:04;7.20;;;5.10;;
76837;SDS011;65797;47.352;8.164;2023-11-21T18:54:32;36.30;;;11.40;;
76837;SDS011;65797;47.352;8.164;2023-11-21T18:56:58;17.30;;;7.27;;
76837;SDS011;65797;47.352;8.164;2023-11-21T18:59:24;11.20;;;5.80;;